createdAt,value
2019-06-07T00:01:44.358Z,69.43
2019-06-07T00:04:16.101Z,69.68
2019-06-07T00:06:47.003Z,70.33
2019-06-07T00:09:21.971Z,70.15
2019-06-07T00:11:49.488Z,69.83
2019-06-07T00:14:21.148Z,70.34
2019-06-07T00:16:51.613Z,70.09
2019-06-07T00:19:21.741Z,70.04
2019-06-07T00:22:17.696Z,69.96
2019-06-07T00:24:23.858Z,70.56
2019-06-07T00:26:58.866Z,70.12
2019-06-07T00:29:26.214Z,69.98
2019-06-07T00:31:56.495Z,70.69
2019-06-07T00:34:27.711Z,71.10
2019-06-07T00:36:57.878Z,70.20
2019-06-07T00:39:29.570Z,70.50
2019-06-07T00:41:59.522Z,69.74
2019-06-07T00:44:29.752Z,70.40
2019-06-07T00:47:00.047Z,71.02
2019-06-07T00:49:40.648Z,71.00
2019-06-07T00:52:03.800Z,70.49
2019-06-07T00:54:34.216Z,70.54
2019-06-07T00:57:04.934Z,70.39
2019-06-07T00:59:35.034Z,70.74
2019-06-07T01:02:05.477Z,70.44
2019-06-07T01:04:35.974Z,70.62
2019-06-07T01:07:06.192Z,70.21
2019-06-07T01:09:36.408Z,70.31
2019-06-07T01:12:07.149Z,69.88
2019-06-07T01:14:37.331Z,70.02
2019-06-07T01:17:41.703Z,70.69
2019-06-07T01:19:58.934Z,70.79
2019-06-07T01:22:29.587Z,70.42
2019-06-07T01:25:00.396Z,69.80
2019-06-07T01:27:31.001Z,70.12
2019-06-07T01:30:01.215Z,70.16
2019-06-07T01:32:31.978Z,70.13
2019-06-07T01:35:02.447Z,70.36
2019-06-07T01:37:32.503Z,69.84
2019-06-07T01:40:03.063Z,69.97
2019-06-07T01:42:33.553Z,69.97
2019-06-07T01:45:05.888Z,70.01
2019-06-07T01:47:36.045Z,71.16
2019-06-07T01:50:08.070Z,70.56
2019-06-07T01:52:39.791Z,70.36
2019-06-07T01:55:09.214Z,69.93
2019-06-07T01:57:48.039Z,70.00
2019-06-07T02:00:14.561Z,70.11
2019-06-07T02:02:44.067Z,70.54
2019-06-07T02:05:14.785Z,70.12
2019-06-07T02:07:44.994Z,69.90
2019-06-07T02:10:15.456Z,70.15
2019-06-07T02:12:45.894Z,69.54
2019-06-07T02:15:21.273Z,69.26
2019-06-07T02:17:49.593Z,70.03
2019-06-07T02:20:20.322Z,69.69
2019-06-07T02:22:51.144Z,69.12
2019-06-07T02:25:38.278Z,69.43
2019-06-07T02:28:11.000Z,69.27
2019-06-07T02:30:50.906Z,70.17
2019-06-07T02:32:57.716Z,69.78
2019-06-07T02:35:34.767Z,69.96
2019-06-07T02:38:00.321Z,70.07
2019-06-07T02:40:36.481Z,70.14
2019-06-07T02:43:03.111Z,70.18
2019-06-07T02:45:42.544Z,69.92
2019-06-07T02:48:04.418Z,69.92
2019-06-07T02:50:38.382Z,69.72
2019-06-07T02:53:06.616Z,69.78
2019-06-07T02:56:11.655Z,69.62
2019-06-07T02:58:08.936Z,69.46
2019-06-07T03:01:04.073Z,69.30
2019-06-07T03:03:19.046Z,70.36
2019-06-07T03:05:50.360Z,69.12
2019-06-07T03:08:21.061Z,69.32
2019-06-07T03:10:52.881Z,68.96
2019-06-07T03:13:22.362Z,69.42
2019-06-07T03:15:54.850Z,68.83
2019-06-07T03:18:42.533Z,69.44
2019-06-07T03:21:15.457Z,69.22
2019-06-07T03:23:46.641Z,68.94
2019-06-07T03:26:17.279Z,68.02
2019-06-07T03:28:48.602Z,67.01
2019-06-07T03:31:18.856Z,67.46
2019-06-07T03:33:49.070Z,68.07
2019-06-07T03:36:25.522Z,68.03
2019-06-07T03:38:51.428Z,68.71
2019-06-07T03:41:21.650Z,68.55
2019-06-07T03:43:52.498Z,68.49
2019-06-07T03:46:22.748Z,68.17
2019-06-07T03:48:52.846Z,67.65
2019-06-07T03:51:26.936Z,67.88
2019-06-07T03:53:56.086Z,68.79
2019-06-07T03:56:28.180Z,68.28
2019-06-07T03:58:58.656Z,68.46
2019-06-07T04:01:30.746Z,67.91
2019-06-07T04:04:02.044Z,68.86
2019-06-07T04:06:34.026Z,67.50
2019-06-07T04:09:05.876Z,68.61
2019-06-07T04:11:40.421Z,68.48
2019-06-07T04:14:07.215Z,68.24
2019-06-07T04:16:41.702Z,67.55
2019-06-07T04:19:09.160Z,67.65
2019-06-07T04:21:42.930Z,68.05
2019-06-07T04:24:13.504Z,67.82
2019-06-07T04:26:46.641Z,68.89
2019-06-07T04:29:34.051Z,69.04
2019-06-07T04:31:47.826Z,69.78
2019-06-07T04:34:18.038Z,69.94
2019-06-07T04:36:58.448Z,70.08
2019-06-07T04:39:22.268Z,69.55
2019-06-07T04:41:53.940Z,69.54
2019-06-07T04:44:25.356Z,69.67
2019-06-07T04:46:57.422Z,69.17
2019-06-07T04:49:29.949Z,68.69
2019-06-07T04:52:03.756Z,68.50
2019-06-07T04:54:35.736Z,68.18
2019-06-07T04:57:05.819Z,68.38
2019-06-07T05:02:09.319Z,69.48
2019-06-07T05:04:42.402Z,68.25
2019-06-07T05:07:13.179Z,68.27
2019-06-07T05:09:43.537Z,68.33
2019-06-07T05:12:13.784Z,67.43
2019-06-07T05:14:44.442Z,66.60
2019-06-07T05:17:15.763Z,65.82
2019-06-07T05:19:45.933Z,64.03
2019-06-07T05:22:16.092Z,64.18
2019-06-07T05:24:46.237Z,64.26
2019-06-07T05:27:16.412Z,64.36
2019-06-07T05:30:08.782Z,64.93
2019-06-07T05:32:18.887Z,65.12
2019-06-07T05:34:48.991Z,65.38
2019-06-07T05:37:19.272Z,64.51
2019-06-07T05:39:50.518Z,65.18
2019-06-07T05:42:21.221Z,63.48
2019-06-07T05:44:52.052Z,63.99
2019-06-07T05:47:22.266Z,63.38
2019-06-07T05:49:52.356Z,63.32
2019-06-07T05:52:22.919Z,63.09
2019-06-07T05:54:53.314Z,62.93
2019-06-07T05:57:23.410Z,63.21
2019-06-07T05:59:53.803Z,62.42
2019-06-07T06:02:25.069Z,63.48
2019-06-07T06:04:54.705Z,61.39
2019-06-07T06:07:24.700Z,60.71
2019-06-07T06:09:54.817Z,63.12
2019-06-07T06:12:35.169Z,63.97
2019-06-07T06:14:58.105Z,64.55
2019-06-07T06:17:28.961Z,64.03
2019-06-07T06:19:59.187Z,63.31
2019-06-07T06:22:30.425Z,62.94
2019-06-07T06:25:31.110Z,63.24
2019-06-07T06:30:08.136Z,63.39
2019-06-07T06:32:45.567Z,62.44
2019-06-07T06:35:10.725Z,62.31
2019-06-07T06:37:46.468Z,61.04
2019-06-07T06:40:16.237Z,59.83
2019-06-07T06:42:49.064Z,59.15
2019-06-07T06:45:19.194Z,59.32
2019-06-07T06:47:50.677Z,59.67
2019-06-07T06:50:21.483Z,58.84
2019-06-07T06:52:54.716Z,59.38
2019-06-07T06:55:23.848Z,59.17
2019-06-07T06:57:54.041Z,57.80
2019-06-07T07:01:04.896Z,58.58
2019-06-07T07:05:56.945Z,58.20
2019-06-07T07:08:27.257Z,58.01
2019-06-07T07:10:57.419Z,57.53
2019-06-07T07:13:29.132Z,58.07
2019-06-07T07:15:58.853Z,56.94
2019-06-07T07:18:29.125Z,57.38
2019-06-07T07:21:00.577Z,56.85
2019-06-07T07:23:30.835Z,55.21
2019-06-07T07:26:02.254Z,53.54
2019-06-07T07:28:32.485Z,51.06
2019-06-07T07:31:04.483Z,48.97
2019-06-07T07:34:20.707Z,48.85
2019-06-07T07:36:28.146Z,45.40
2019-06-07T07:38:39.506Z,45.67
2019-06-07T07:41:15.539Z,45.22
2019-06-07T07:43:45.782Z,44.02
2019-06-07T07:46:31.552Z,41.94
2019-06-07T07:48:48.553Z,41.50
2019-06-07T07:51:18.920Z,42.36
2019-06-07T07:53:59.154Z,41.56
2019-06-07T07:56:20.983Z,43.43
2019-06-07T07:58:57.935Z,43.49
2019-06-07T08:01:23.147Z,46.96
2019-06-07T08:03:54.972Z,49.15
2019-06-07T08:06:25.240Z,51.14
2019-06-07T08:08:57.064Z,49.37
2019-06-07T08:11:30.037Z,45.51
2019-06-07T08:14:00.269Z,46.50
2019-06-07T08:16:30.492Z,47.36
2019-06-07T08:19:04.047Z,44.63
2019-06-07T08:21:33.147Z,47.59
2019-06-07T08:24:05.416Z,47.02
2019-06-07T08:26:34.975Z,47.00
2019-06-07T08:29:05.577Z,49.37
2019-06-07T08:31:36.140Z,49.78
2019-06-07T08:34:06.456Z,50.55
2019-06-07T08:36:42.348Z,50.86
2019-06-07T08:39:09.013Z,50.41
2019-06-07T08:41:53.514Z,50.07
2019-06-07T08:44:23.211Z,49.00
2019-06-07T08:46:43.901Z,49.52
2019-06-07T08:49:14.061Z,50.69
2019-06-07T08:51:44.303Z,49.44
2019-06-07T08:54:22.443Z,48.78
2019-06-07T08:56:46.356Z,49.27
2019-06-07T08:59:16.515Z,49.69
2019-06-07T09:01:47.222Z,49.53
2019-06-07T09:04:17.360Z,49.92
2019-06-07T09:07:06.661Z,50.36
2019-06-07T09:09:19.662Z,50.91
2019-06-07T09:11:49.816Z,51.16
2019-06-07T09:14:19.946Z,51.18
2019-06-07T09:16:51.497Z,51.47
2019-06-07T09:19:20.744Z,51.34
2019-06-07T09:21:50.853Z,51.69
2019-06-07T09:24:21.141Z,51.73
2019-06-07T09:26:51.433Z,52.03
2019-06-07T09:29:21.652Z,50.98
2019-06-07T09:31:53.696Z,51.80
2019-06-07T09:34:26.002Z,50.28
2019-06-07T09:36:58.260Z,50.78
2019-06-07T09:39:28.247Z,51.40
2019-06-07T09:42:00.740Z,51.95
2019-06-07T09:44:31.124Z,52.02
2019-06-07T09:47:29.585Z,52.03
2019-06-07T09:49:33.914Z,51.79
2019-06-07T09:52:09.114Z,53.63
2019-06-07T09:55:05.931Z,53.68
2019-06-07T09:57:16.379Z,54.15
2019-06-07T09:59:39.724Z,53.70
2019-06-07T10:02:13.739Z,52.62
2019-06-07T10:04:43.388Z,52.75
2019-06-07T10:07:30.724Z,51.94
2019-06-07T10:12:19.010Z,48.72
2019-06-07T10:14:49.134Z,50.31
2019-06-07T10:17:19.623Z,52.29
2019-06-07T10:19:49.801Z,52.68
2019-06-07T10:22:19.942Z,53.45
2019-06-07T10:24:50.165Z,53.77
2019-06-07T10:27:23.936Z,53.73
2019-06-07T10:29:54.065Z,53.86
2019-06-07T10:32:24.713Z,53.08
2019-06-07T10:34:54.906Z,52.06
2019-06-07T10:37:27.115Z,51.90
2019-06-07T10:39:57.018Z,50.78
2019-06-07T10:42:27.256Z,50.31
2019-06-07T10:44:57.443Z,49.31
2019-06-07T10:47:27.986Z,49.23
2019-06-07T10:49:58.221Z,49.30
2019-06-07T10:52:28.303Z,51.15
2019-06-07T10:54:58.620Z,51.63
2019-06-07T10:57:28.733Z,51.90
2019-06-07T10:59:58.960Z,51.30
2019-06-07T11:02:29.414Z,51.62
2019-06-07T11:04:59.624Z,51.51
2019-06-07T11:07:30.007Z,52.15
2019-06-07T11:10:07.340Z,51.81
2019-06-07T11:12:32.073Z,52.21
2019-06-07T11:15:02.314Z,52.32
2019-06-07T11:17:32.702Z,53.35
2019-06-07T11:20:03.586Z,53.06
2019-06-07T11:22:33.668Z,53.47
2019-06-07T11:25:06.905Z,53.47
2019-06-07T11:27:37.179Z,52.98
2019-06-07T11:30:10.542Z,54.04
2019-06-07T11:32:41.421Z,54.16
2019-06-07T11:35:13.972Z,54.04
2019-06-07T11:37:45.134Z,53.01
2019-06-07T11:40:29.749Z,51.80
2019-06-07T11:42:52.555Z,52.62
2019-06-07T11:45:21.374Z,53.24
2019-06-07T11:47:52.111Z,52.50
2019-06-07T11:50:22.425Z,52.20
2019-06-07T11:52:52.586Z,54.01
2019-06-07T11:55:22.791Z,51.86
2019-06-07T11:57:52.934Z,53.15
2019-06-07T12:00:25.042Z,52.96
2019-06-07T12:02:55.367Z,52.45
2019-06-07T12:05:25.564Z,52.58
2019-06-07T12:07:57.169Z,52.37
2019-06-07T12:10:39.670Z,52.54
2019-06-07T12:12:59.576Z,52.90
2019-06-07T12:15:29.711Z,52.97
2019-06-07T12:17:59.887Z,52.43
2019-06-07T12:20:30.271Z,53.86
2019-06-07T12:23:00.353Z,52.02
2019-06-07T12:25:30.530Z,51.46
2019-06-07T12:28:00.663Z,51.54
2019-06-07T12:30:30.913Z,52.79
2019-06-07T12:33:01.365Z,52.91
2019-06-07T12:35:31.603Z,53.01
2019-06-07T12:38:01.747Z,52.14
2019-06-07T12:40:32.506Z,52.29
2019-06-07T12:43:03.316Z,52.37
2019-06-07T12:45:44.436Z,52.55
2019-06-07T12:48:06.008Z,52.49
2019-06-07T12:50:43.150Z,52.72
2019-06-07T12:53:08.419Z,52.25
2019-06-07T12:55:39.572Z,53.16
2019-06-07T12:58:09.840Z,53.21
2019-06-07T13:00:40.114Z,54.33
2019-06-07T13:03:10.542Z,53.99
2019-06-07T13:05:40.854Z,52.34
2019-06-07T13:08:11.145Z,53.28
2019-06-07T13:10:41.361Z,52.75
2019-06-07T13:13:11.504Z,53.02
2019-06-07T13:15:41.705Z,52.39
2019-06-07T13:18:15.020Z,52.17
2019-06-07T13:20:44.144Z,53.00
2019-06-07T13:23:14.275Z,52.49
2019-06-07T13:25:46.665Z,52.30
2019-06-07T13:28:17.254Z,51.86
2019-06-07T13:30:48.199Z,53.06
2019-06-07T13:33:19.099Z,52.00
2019-06-07T13:35:49.327Z,52.52
2019-06-07T13:38:26.731Z,53.32
2019-06-07T13:40:57.137Z,52.81
2019-06-07T13:43:28.782Z,52.29
2019-06-07T13:45:58.968Z,52.22
2019-06-07T13:48:30.861Z,51.91
2019-06-07T13:51:00.976Z,53.75
2019-06-07T13:53:31.293Z,52.41
2019-06-07T13:56:01.438Z,52.27
2019-06-07T13:58:32.912Z,52.10
2019-06-07T14:01:02.230Z,52.68
2019-06-07T14:03:33.881Z,52.49
2019-06-07T14:06:05.047Z,52.40
2019-06-07T14:08:35.181Z,52.26
2019-06-07T14:11:05.425Z,52.78
2019-06-07T14:13:35.720Z,52.14
2019-06-07T14:16:06.050Z,52.59
2019-06-07T14:18:39.746Z,52.41
2019-06-07T14:21:09.602Z,52.31
2019-06-07T14:23:48.991Z,52.27
2019-06-07T14:26:14.439Z,52.59
2019-06-07T14:28:45.554Z,53.39
2019-06-07T14:31:15.765Z,52.93
2019-06-07T14:33:46.439Z,53.06
2019-06-07T14:36:16.712Z,52.87
2019-06-07T14:38:48.050Z,52.53
2019-06-07T14:41:18.371Z,53.23
2019-06-07T14:43:48.652Z,53.36
2019-06-07T14:46:19.002Z,53.54
2019-06-07T14:48:49.478Z,52.95
2019-06-07T14:51:19.637Z,53.66
2019-06-07T14:53:49.975Z,53.07
2019-06-07T14:56:20.192Z,52.39
2019-06-07T14:58:50.278Z,52.53
2019-06-07T15:01:20.506Z,52.38
2019-06-07T15:03:50.950Z,52.41
2019-06-07T15:06:21.295Z,52.06
2019-06-07T15:08:51.811Z,52.09
2019-06-07T15:11:22.208Z,52.87
2019-06-07T15:13:54.138Z,51.89
2019-06-07T15:16:24.353Z,51.04
2019-06-07T15:18:54.793Z,51.31
2019-06-07T15:21:25.036Z,51.35
2019-06-07T15:23:55.166Z,51.83
2019-06-07T15:26:25.290Z,52.13
2019-06-07T15:28:57.526Z,51.58
2019-06-07T15:31:29.900Z,51.71
2019-06-07T15:34:00.718Z,51.47
2019-06-07T15:36:30.804Z,51.42
2019-06-07T15:39:01.049Z,50.54
2019-06-07T15:41:33.112Z,49.33
2019-06-07T15:44:04.948Z,51.12
2019-06-07T15:46:35.644Z,50.38
2019-06-07T15:49:07.137Z,50.29
2019-06-07T15:51:38.536Z,51.34
2019-06-07T15:54:08.979Z,49.97
2019-06-07T15:56:39.216Z,47.57
2019-06-07T15:59:09.336Z,46.62
2019-06-07T16:01:42.053Z,48.05
2019-06-07T16:04:12.718Z,46.76
2019-06-07T16:06:43.528Z,46.70
2019-06-07T16:09:14.143Z,46.85
2019-06-07T16:11:44.478Z,46.10
2019-06-07T16:14:14.938Z,45.00
2019-06-07T16:16:45.105Z,46.25
2019-06-07T16:19:15.370Z,46.02
2019-06-07T16:21:45.478Z,45.95
2019-06-07T16:24:15.635Z,46.15
2019-06-07T16:26:45.769Z,46.51
2019-06-07T16:29:16.017Z,46.45
2019-06-07T16:31:46.223Z,47.06
2019-06-07T16:34:17.713Z,46.77
2019-06-07T16:36:48.858Z,46.59
2019-06-07T16:39:19.934Z,46.88
2019-06-07T16:41:50.205Z,46.24
2019-06-07T16:44:20.404Z,47.03
2019-06-07T16:46:50.732Z,46.41
2019-06-07T16:49:21.727Z,47.38
2019-06-07T16:51:51.573Z,46.82
2019-06-07T16:54:21.693Z,47.06
2019-06-07T16:56:51.875Z,47.32
2019-06-07T16:59:22.145Z,47.21
2019-06-07T17:01:52.279Z,47.10
2019-06-07T17:04:22.562Z,47.40
2019-06-07T17:06:52.957Z,47.68
2019-06-07T17:09:23.145Z,47.65
2019-06-07T17:11:53.329Z,47.38
2019-06-07T17:14:23.468Z,47.50
2019-06-07T17:16:53.772Z,47.91
2019-06-07T17:19:24.196Z,47.59
2019-06-07T17:21:54.308Z,47.62
2019-06-07T17:24:26.863Z,47.91
2019-06-07T17:26:57.075Z,47.93
2019-06-07T17:29:27.324Z,48.06
2019-06-07T17:34:26.951Z,47.39
2019-06-07T17:36:57.125Z,47.65
2019-06-07T17:39:27.263Z,48.29
2019-06-07T17:42:02.179Z,48.25
2019-06-07T17:44:29.238Z,47.85
2019-06-07T17:46:59.354Z,48.07
2019-06-07T17:49:31.374Z,48.21
2019-06-07T17:52:01.549Z,48.24
2019-06-07T17:54:31.702Z,48.41
2019-06-07T17:57:01.857Z,48.59
2019-06-07T17:59:32.004Z,49.02
2019-06-07T18:02:14.236Z,49.36
2019-06-07T18:04:34.482Z,49.82
2019-06-07T18:07:04.990Z,50.18
2019-06-07T18:09:36.290Z,50.79
2019-06-07T18:12:06.572Z,51.57
2019-06-07T18:14:37.422Z,52.08
2019-06-07T18:17:07.572Z,52.40
2019-06-07T18:19:38.184Z,52.75
2019-06-07T18:22:11.316Z,53.63
2019-06-07T18:24:41.556Z,53.63
2019-06-07T18:27:11.894Z,53.41
2019-06-07T18:29:42.008Z,54.23
2019-06-07T18:32:13.581Z,54.00
2019-06-07T18:34:44.604Z,54.66
2019-06-07T18:37:16.119Z,55.17
2019-06-07T18:39:47.026Z,55.33
2019-06-07T18:42:17.649Z,55.58
2019-06-07T18:44:48.929Z,55.50
2019-06-07T18:47:19.332Z,55.19
2019-06-07T18:49:51.194Z,55.28
2019-06-07T18:52:23.320Z,55.26
2019-06-07T18:54:54.977Z,55.46
2019-06-07T18:57:24.652Z,55.94
2019-06-07T18:59:54.904Z,56.37
2019-06-07T19:02:25.221Z,56.84
2019-06-07T19:04:58.330Z,56.75
2019-06-07T19:07:28.972Z,56.58
2019-06-07T19:09:59.547Z,57.20
2019-06-07T19:12:29.909Z,57.62
2019-06-07T19:15:00.215Z,56.95
2019-06-07T19:17:30.519Z,57.17
2019-06-07T19:20:01.118Z,57.38
2019-06-07T19:22:31.496Z,57.07
2019-06-07T19:25:04.245Z,57.90
2019-06-07T19:27:34.726Z,58.40
2019-06-07T19:30:07.381Z,57.88
2019-06-07T19:32:39.947Z,57.66
2019-06-07T19:35:12.294Z,57.76
2019-06-07T19:37:42.782Z,57.97
2019-06-07T19:40:13.827Z,57.91
2019-06-07T19:42:44.246Z,58.15
2019-06-07T19:45:30.383Z,57.75
2019-06-07T19:47:48.683Z,58.05
2019-06-07T19:50:20.950Z,58.13
2019-06-07T19:52:53.181Z,58.08
2019-06-07T19:55:23.553Z,57.78
2019-06-07T19:57:55.478Z,58.11
2019-06-07T20:00:26.130Z,58.55
2019-06-07T20:02:57.909Z,58.03
2019-06-07T20:05:28.541Z,58.54
2019-06-07T20:07:58.853Z,58.31
2019-06-07T20:10:29.137Z,58.53
2019-06-07T20:13:00.697Z,58.60
2019-06-07T20:15:30.322Z,58.23
2019-06-07T20:18:01.313Z,58.33
2019-06-07T20:20:31.871Z,58.49
2019-06-07T20:23:03.047Z,59.11
2019-06-07T20:25:34.381Z,58.31
2019-06-07T20:28:05.534Z,58.57
2019-06-07T20:30:37.617Z,59.11
2019-06-07T20:33:08.251Z,58.78
2019-06-07T20:35:40.411Z,58.29
2019-06-07T20:38:13.221Z,57.72
2019-06-07T20:40:43.371Z,57.83
2019-06-07T20:43:13.461Z,57.95
2019-06-07T20:45:43.607Z,57.90
2019-06-07T20:48:13.767Z,57.79
2019-06-07T20:50:44.494Z,57.75
2019-06-07T20:53:16.084Z,58.29
2019-06-07T20:55:45.355Z,59.00
2019-06-07T20:58:15.326Z,59.01
2019-06-07T21:00:45.489Z,58.88
2019-06-07T21:03:15.715Z,58.86
2019-06-07T21:05:46.714Z,59.06
2019-06-07T21:08:17.293Z,58.35
2019-06-07T21:10:47.409Z,59.31
2019-06-07T21:13:17.579Z,59.30
2019-06-07T21:15:49.226Z,58.94
2019-06-07T21:18:20.213Z,58.89
2019-06-07T21:20:50.765Z,58.70
2019-06-07T21:23:21.995Z,58.83
2019-06-07T21:25:52.139Z,58.52
2019-06-07T21:28:22.356Z,58.33
2019-06-07T21:30:52.596Z,59.14
2019-06-07T21:33:22.677Z,58.80
2019-06-07T21:35:53.322Z,58.89
2019-06-07T21:38:23.531Z,58.88
2019-06-07T21:40:53.668Z,59.26
2019-06-07T21:43:23.966Z,59.86
2019-06-07T21:46:04.683Z,59.25
2019-06-07T21:48:25.938Z,59.76
2019-06-07T21:50:56.660Z,59.97
2019-06-07T21:53:30.000Z,60.07
2019-06-07T21:56:00.066Z,59.56
2019-06-07T21:58:30.156Z,59.89
2019-06-07T22:01:06.750Z,60.47
2019-06-07T22:03:40.125Z,60.68
2019-06-07T22:06:11.708Z,60.83
2019-06-07T22:08:41.049Z,60.53
2019-06-07T22:11:12.325Z,60.47
2019-06-07T22:13:42.715Z,59.51
2019-06-07T22:16:26.247Z,60.22
2019-06-07T22:18:44.839Z,60.23
2019-06-07T22:21:16.564Z,60.47
2019-06-07T22:23:45.799Z,60.69
2019-06-07T22:26:15.941Z,60.41
2019-06-07T22:28:46.891Z,60.70
2019-06-07T22:31:17.052Z,60.80
2019-06-07T22:33:47.154Z,60.67
2019-06-07T22:36:17.905Z,60.84
2019-06-07T22:38:49.264Z,61.32
2019-06-07T22:41:19.375Z,61.17
2019-06-07T22:43:49.505Z,60.76
2019-06-07T22:46:19.872Z,60.98
2019-06-07T22:48:51.304Z,60.83
2019-06-07T22:51:21.952Z,61.57
2019-06-07T22:53:52.047Z,61.66
2019-06-07T22:56:23.826Z,61.62
2019-06-07T22:58:53.086Z,61.80
2019-06-07T23:01:23.629Z,61.71
2019-06-07T23:03:53.826Z,61.85
2019-06-07T23:06:24.273Z,62.20
2019-06-07T23:08:54.426Z,62.14
2019-06-07T23:11:26.228Z,61.97
2019-06-07T23:13:56.634Z,61.85
2019-06-07T23:16:26.800Z,61.90
2019-06-07T23:18:57.313Z,62.25
2019-06-07T23:21:27.753Z,62.15
2019-06-07T23:23:57.883Z,62.08
2019-06-07T23:26:28.028Z,62.50
2019-06-07T23:28:58.258Z,62.00
2019-06-07T23:31:28.469Z,62.93
2019-06-07T23:33:58.608Z,62.92
2019-06-07T23:36:29.259Z,62.50
2019-06-07T23:38:59.441Z,62.36
2019-06-07T23:41:29.591Z,62.45
2019-06-07T23:43:59.685Z,63.07
2019-06-07T23:46:29.868Z,63.02
2019-06-07T23:48:59.971Z,62.72
2019-06-07T23:51:30.634Z,63.09
2019-06-07T23:54:00.964Z,63.26
2019-06-07T23:56:31.716Z,63.67
2019-06-07T23:59:01.752Z,62.71
